IT-0046 weather

CLOSED CASCINA GRECIA
Cuceglio (TO), Piedmont, Italy

Public forecast

Using degrees Celsius for public forecast. Weather courtesy of forecast.io.

Closest aviation weather report (METAR) to CASCINA GRECIA

Closest report is Turin Airport, 10.6 nm (19.6 km) SSW. Retrieved 2020/08/06 07:20 UTC (3 minutes ago):

LIMF 060720Z VRB02KT CAVOK 22/14 Q1018

Closest aviation forecast (TAF) to CASCINA GRECIA

Closest forecast is Turin Airport, 10.6 nm (19.6 km) SSW. Retrieved 2020/08/06 06:00 UTC (1 hour ago):

TAF LIMF 060525Z 0606/0706 VRB05KT CAVOK